createdAt,value
2023-02-07T00:00:17.810Z,16.27
2023-02-07T00:02:49.535Z,14.70
2023-02-07T00:05:16.475Z,16.10
2023-02-07T00:07:43.548Z,14.48
2023-02-07T00:10:10.637Z,15.73
2023-02-07T00:12:37.168Z,18.40
2023-02-07T00:15:04.640Z,19.02
2023-02-07T00:17:31.334Z,18.35
2023-02-07T00:19:58.212Z,16.55
2023-02-07T00:22:24.901Z,20.30
2023-02-07T00:24:51.741Z,18.55
2023-02-07T00:27:18.669Z,15.70
2023-02-07T00:29:45.426Z,14.95
2023-02-07T00:32:11.980Z,16.40
2023-02-07T00:34:38.569Z,19.55
2023-02-07T00:37:06.172Z,15.60
2023-02-07T00:39:32.946Z,21.02
2023-02-07T00:41:59.567Z,15.65
2023-02-07T00:44:26.380Z,20.02
2023-02-07T00:46:52.892Z,14.32
2023-02-07T00:49:19.463Z,21.50
2023-02-07T00:51:46.112Z,22.23
2023-02-07T00:54:12.642Z,19.40
2023-02-07T00:56:39.459Z,18.98
2023-02-07T00:59:06.163Z,17.08
2023-02-07T01:01:33.046Z,19.17
2023-02-07T01:03:59.902Z,13.50
2023-02-07T01:06:28.113Z,15.80
2023-02-07T01:08:59.085Z,16.25
2023-02-07T01:11:26.584Z,18.90
2023-02-07T01:13:53.625Z,14.38
2023-02-07T01:16:25.161Z,15.70
2023-02-07T01:18:51.993Z,17.73
2023-02-07T01:21:24.518Z,19.48
2023-02-07T01:23:51.701Z,14.73
2023-02-07T01:26:18.543Z,15.57
2023-02-07T01:28:45.100Z,14.15
2023-02-07T01:31:13.251Z,15.40
2023-02-07T01:33:39.836Z,17.30
2023-02-07T01:36:11.813Z,16.95
2023-02-07T01:38:38.664Z,16.52
2023-02-07T01:41:05.777Z,16.67
2023-02-07T01:43:32.638Z,17.20
2023-02-07T01:45:59.208Z,15.07
2023-02-07T01:48:36.810Z,15.38
2023-02-07T01:51:07.612Z,15.85
2023-02-07T01:53:37.382Z,13.02
2023-02-07T01:56:07.064Z,16.98
2023-02-07T01:58:34.306Z,18.15
2023-02-07T02:01:04.362Z,14.57
2023-02-07T02:05:57.604Z,19.05
2023-02-07T02:08:24.856Z,14.98
2023-02-07T02:11:29.891Z,14.63
2023-02-07T02:14:21.376Z,15.73
2023-02-07T02:16:50.595Z,12.90
2023-02-07T02:19:37.054Z,15.73
2023-02-07T02:22:39.084Z,13.68
2023-02-07T02:25:33.428Z,14.38
2023-02-07T02:28:11.745Z,17.20
2023-02-07T02:30:58.286Z,15.55
2023-02-07T02:33:30.950Z,14.57
2023-02-07T02:36:21.879Z,15.15
2023-02-07T02:39:02.849Z,16.45
2023-02-07T02:41:40.740Z,19.88
2023-02-07T02:44:25.960Z,17.77
2023-02-07T02:46:54.359Z,15.15
2023-02-07T02:49:26.160Z,13.07
2023-02-07T02:51:52.912Z,12.63
2023-02-07T02:54:31.120Z,15.00
2023-02-07T02:57:16.062Z,13.15
2023-02-07T03:00:07.854Z,15.43
2023-02-07T03:03:00.600Z,13.68
2023-02-07T03:05:38.903Z,13.32
2023-02-07T03:08:28.275Z,13.73
2023-02-07T03:11:07.875Z,16.48
2023-02-07T03:13:59.215Z,18.02
2023-02-07T03:16:37.965Z,14.38
2023-02-07T03:19:07.866Z,16.55
2023-02-07T03:21:41.349Z,14.52
2023-02-07T03:24:15.298Z,12.10
2023-02-07T03:26:44.754Z,16.58
2023-02-07T03:29:14.916Z,15.80
2023-02-07T03:31:45.548Z,15.50
2023-02-07T03:34:16.834Z,16.98
2023-02-07T03:36:58.354Z,13.10
2023-02-07T03:39:25.567Z,14.77
2023-02-07T03:41:57.494Z,12.65
2023-02-07T03:44:27.158Z,14.82
2023-02-07T03:46:54.703Z,19.60
2023-02-07T03:49:21.715Z,15.90
2023-02-07T03:51:48.290Z,13.65
2023-02-07T03:54:15.132Z,17.23
2023-02-07T03:56:41.822Z,24.80
2023-02-07T03:59:08.662Z,14.93
2023-02-07T04:01:40.731Z,15.38
2023-02-07T04:04:08.007Z,14.07
2023-02-07T04:06:34.580Z,16.23
2023-02-07T04:09:01.151Z,14.15
2023-02-07T04:11:30.723Z,17.05
2023-02-07T04:13:57.319Z,19.65
2023-02-07T04:16:24.727Z,18.13
2023-02-07T04:18:51.292Z,16.67
2023-02-07T04:21:17.884Z,17.13
2023-02-07T04:23:44.412Z,16.05
2023-02-07T04:26:10.956Z,13.77
2023-02-07T04:28:37.485Z,15.77
2023-02-07T04:31:04.188Z,15.18
2023-02-07T04:33:30.716Z,16.80
2023-02-07T04:36:03.108Z,17.92
2023-02-07T04:38:30.043Z,15.13
2023-02-07T04:41:03.421Z,16.38
2023-02-07T04:43:31.008Z,16.40
2023-02-07T04:45:57.546Z,13.95
2023-02-07T04:48:24.248Z,19.70
2023-02-07T04:50:50.696Z,16.02
2023-02-07T04:53:17.324Z,19.17
2023-02-07T04:55:47.389Z,17.75
2023-02-07T04:58:14.114Z,19.38
2023-02-07T05:00:40.887Z,17.48
2023-02-07T05:03:07.378Z,20.45
2023-02-07T05:05:33.882Z,19.52
2023-02-07T05:08:00.351Z,21.30
2023-02-07T05:10:26.870Z,17.08
2023-02-07T05:12:53.395Z,21.88
2023-02-07T05:15:20.009Z,22.05
2023-02-07T05:17:46.679Z,15.27
2023-02-07T05:20:13.277Z,19.25
2023-02-07T05:22:39.769Z,17.73
2023-02-07T05:25:06.589Z,22.00
2023-02-07T05:27:33.405Z,17.65
2023-02-07T05:30:00.065Z,18.15
2023-02-07T05:32:45.398Z,16.02
2023-02-07T05:35:12.024Z,22.02
2023-02-07T05:37:38.600Z,21.25
2023-02-07T05:40:05.642Z,19.25
2023-02-07T05:42:32.345Z,20.23
2023-02-07T05:44:58.933Z,22.75
2023-02-07T05:47:25.494Z,21.00
2023-02-07T05:49:52.042Z,23.52
2023-02-07T05:52:18.664Z,23.35
2023-02-07T05:54:45.160Z,20.10
2023-02-07T05:57:11.665Z,23.33
2023-02-07T05:59:38.172Z,24.50
2023-02-07T06:02:04.690Z,22.98
2023-02-07T06:04:31.471Z,24.83
2023-02-07T06:06:57.981Z,22.60
2023-02-07T06:09:24.521Z,21.63
2023-02-07T06:11:50.986Z,20.63
2023-02-07T06:14:17.700Z,25.80
2023-02-07T06:16:44.184Z,22.70
2023-02-07T06:19:12.976Z,27.67
2023-02-07T06:21:46.518Z,22.98
2023-02-07T06:24:14.286Z,23.23
2023-02-07T06:26:40.790Z,25.40
2023-02-07T06:29:07.565Z,26.55
2023-02-07T06:31:34.111Z,25.92
2023-02-07T06:34:00.671Z,25.88
2023-02-07T06:36:27.188Z,23.08
2023-02-07T06:38:55.522Z,24.15
2023-02-07T06:41:22.836Z,24.88
2023-02-07T06:43:49.392Z,26.65
2023-02-07T06:46:16.117Z,26.08
2023-02-07T06:48:42.741Z,27.95
2023-02-07T06:51:09.397Z,31.70
2023-02-07T06:53:35.917Z,27.98
2023-02-07T06:56:02.639Z,26.10
2023-02-07T06:58:29.129Z,30.33
2023-02-07T07:00:55.653Z,27.25
2023-02-07T07:03:26.992Z,32.08
2023-02-07T07:05:53.644Z,27.70
2023-02-07T07:08:20.422Z,34.28
2023-02-07T07:10:46.963Z,30.83
2023-02-07T07:13:13.523Z,35.45
2023-02-07T07:15:40.276Z,29.45
2023-02-07T07:18:06.986Z,30.10
2023-02-07T07:20:33.557Z,48.50
2023-02-07T07:23:00.036Z,58.20
2023-02-07T16:20:15.659Z,31.58
2023-02-07T16:30:15.286Z,12.90
2023-02-07T16:59:41.730Z,18.30
2023-02-07T17:02:14.981Z,15.30
2023-02-07T23:35:09.477Z,25.60
